createdAt,value
2023-05-14T00:00:29.266Z,102085.69
2023-05-14T00:02:55.987Z,102086.66
2023-05-14T00:05:22.902Z,102090.31
2023-05-14T00:07:49.421Z,102086.72
2023-05-14T00:10:17.607Z,102092.25
2023-05-14T00:12:44.013Z,102085.38
2023-05-14T00:15:10.615Z,102077.47
2023-05-14T00:17:37.579Z,102083.78
2023-05-14T00:20:07.153Z,102069.72
2023-05-14T00:22:34.166Z,102071.50
2023-05-14T00:25:00.926Z,102074.09
2023-05-14T00:27:27.440Z,102074.06
2023-05-14T00:29:54.031Z,102078.59
2023-05-14T00:32:20.742Z,102078.63
2023-05-14T00:34:47.298Z,102071.75
2023-05-14T00:37:13.786Z,102063.94
2023-05-14T00:39:40.304Z,102065.75
2023-05-14T00:42:06.991Z,102069.38
2023-05-14T00:44:33.558Z,102074.06
2023-05-14T00:47:00.517Z,102067.94
2023-05-14T00:49:28.579Z,102065.38
2023-05-14T00:51:55.825Z,102064.59
2023-05-14T00:54:22.840Z,102069.16
2023-05-14T00:56:49.396Z,102060.34
2023-05-14T00:59:16.172Z,102060.41
2023-05-14T01:01:42.696Z,102059.47
2023-05-14T01:04:10.930Z,102059.59
2023-05-14T01:06:56.137Z,102058.88
2023-05-14T01:09:32.717Z,102053.53
2023-05-14T01:12:41.840Z,102058.00
2023-05-14T01:15:13.164Z,102056.41
2023-05-14T01:17:46.571Z,102052.97
2023-05-14T01:20:13.510Z,102054.00
2023-05-14T01:22:40.080Z,102052.31
2023-05-14T01:25:07.327Z,102050.56
2023-05-14T01:27:52.708Z,102051.53
2023-05-14T01:30:45.436Z,102056.88
2023-05-14T01:33:14.703Z,102050.03
2023-05-14T01:35:41.649Z,102045.72
2023-05-14T01:38:11.679Z,102047.47
2023-05-14T01:40:38.425Z,102051.97
2023-05-14T01:43:05.688Z,102038.75
2023-05-14T01:45:35.437Z,102034.44
2023-05-14T01:48:02.157Z,102035.38
2023-05-14T01:50:28.685Z,102035.38
2023-05-14T01:52:56.590Z,102040.75
2023-05-14T01:55:26.981Z,102031.00
2023-05-14T01:57:53.730Z,102037.16
2023-05-14T02:00:22.031Z,102028.41
2023-05-14T02:02:48.756Z,102027.56
2023-05-14T02:05:15.366Z,102016.13
2023-05-14T02:07:41.879Z,102022.41
2023-05-14T02:10:08.907Z,102011.13
2023-05-14T02:12:35.461Z,102011.03
2023-05-14T02:15:03.733Z,102013.78
2023-05-14T02:17:30.142Z,102014.75
2023-05-14T02:19:56.694Z,102019.22
2023-05-14T02:22:23.178Z,102015.75
2023-05-14T02:24:52.483Z,102016.66
2023-05-14T02:27:19.363Z,102015.88
2023-05-14T02:29:45.874Z,102011.59
2023-05-14T02:32:12.548Z,102022.19
2023-05-14T02:34:39.099Z,102021.34
2023-05-14T02:37:05.632Z,102016.06
2023-05-14T02:39:32.154Z,102018.66
2023-05-14T02:41:58.672Z,102017.78
2023-05-14T02:44:25.187Z,102019.56
2023-05-14T02:46:51.794Z,102015.28
2023-05-14T02:49:18.345Z,102012.63
2023-05-14T02:51:44.936Z,102013.63
2023-05-14T02:54:11.512Z,102017.13
2023-05-14T02:56:38.027Z,102018.13
2023-05-14T02:59:04.630Z,102017.28
2023-05-14T03:01:31.633Z,102013.78
2023-05-14T03:03:58.694Z,102005.00
2023-05-14T03:06:25.295Z,101997.97
2023-05-14T03:08:51.816Z,102005.97
2023-05-14T03:11:18.333Z,102002.38
2023-05-14T03:13:44.818Z,102000.66
2023-05-14T03:16:11.510Z,102002.47
2023-05-14T03:18:38.175Z,101997.28
2023-05-14T03:21:04.950Z,102002.56
2023-05-14T03:23:35.135Z,102005.22
2023-05-14T03:26:02.304Z,101997.28
2023-05-14T03:28:28.901Z,101992.91
2023-05-14T03:30:55.464Z,101989.34
2023-05-14T03:33:22.742Z,101984.88
2023-05-14T03:35:49.392Z,101994.50
2023-05-14T03:38:15.913Z,101990.97
2023-05-14T03:40:42.484Z,101989.16
2023-05-14T03:43:08.980Z,101990.13
2023-05-14T03:45:35.698Z,101979.63
2023-05-14T03:48:02.544Z,101987.56
2023-05-14T03:50:29.371Z,101981.38
2023-05-14T03:52:56.284Z,101983.97
2023-05-14T03:55:22.938Z,101984.00
2023-05-14T03:57:49.464Z,101981.31
2023-05-14T04:00:16.372Z,101982.28
2023-05-14T04:02:43.032Z,101980.56
2023-05-14T04:05:09.842Z,101989.41
2023-05-14T04:07:36.434Z,101996.44
2023-05-14T04:10:04.738Z,101985.91
2023-05-14T04:12:31.495Z,101987.75
2023-05-14T04:14:58.644Z,101995.69
2023-05-14T04:17:25.859Z,101990.44
2023-05-14T04:19:52.440Z,101999.34
2023-05-14T04:22:19.052Z,102002.88
2023-05-14T04:24:45.954Z,101997.50
2023-05-14T04:27:18.181Z,101997.50
2023-05-14T04:29:44.750Z,101995.69
2023-05-14T04:32:12.239Z,101994.75
2023-05-14T04:34:38.698Z,101998.13
2023-05-14T04:37:05.231Z,101995.50
2023-05-14T04:39:31.745Z,101996.34
2023-05-14T04:41:58.289Z,102000.75
2023-05-14T04:44:24.780Z,102004.13
2023-05-14T04:46:51.403Z,101997.81
2023-05-14T04:49:18.060Z,102000.41
2023-05-14T04:51:44.571Z,101992.28
2023-05-14T04:54:11.371Z,101990.44
2023-05-14T04:56:37.896Z,101992.00
2023-05-14T04:59:04.457Z,101993.75
2023-05-14T05:01:31.417Z,101988.41
2023-05-14T05:03:58.200Z,101992.75
2023-05-14T05:06:24.758Z,101995.25
2023-05-14T05:08:51.255Z,101990.81
2023-05-14T05:11:17.863Z,102001.25
2023-05-14T05:13:44.417Z,102003.94
2023-05-14T05:16:10.981Z,102016.97
2023-05-14T05:18:37.776Z,102016.09
2023-05-14T05:21:04.346Z,102011.56
2023-05-14T05:23:30.852Z,102005.38
2023-05-14T05:25:57.358Z,102006.22
2023-05-14T05:28:23.896Z,102003.69
2023-05-14T05:30:50.380Z,102004.28
2023-05-14T05:33:16.898Z,102010.31
2023-05-14T05:35:44.556Z,102007.16
2023-05-14T05:38:11.097Z,102023.19
2023-05-14T05:40:37.677Z,102005.31
2023-05-14T05:43:04.280Z,102013.19
2023-05-14T05:45:30.852Z,102013.72
2023-05-14T05:47:57.408Z,102023.16
2023-05-14T05:50:24.715Z,102015.84
2023-05-14T05:52:52.022Z,102010.28
2023-05-14T05:55:19.171Z,102018.63
2023-05-14T05:57:45.768Z,102011.59
2023-05-14T06:00:13.258Z,102014.06
2023-05-14T06:02:43.118Z,102021.97
2023-05-14T06:05:10.816Z,102024.63
2023-05-14T06:07:37.462Z,102018.91
2023-05-14T06:10:05.004Z,102019.59
2023-05-14T06:12:31.543Z,102030.53
2023-05-14T06:14:58.052Z,102028.38
2023-05-14T06:17:25.685Z,102032.81
2023-05-14T06:19:52.919Z,102026.47
2023-05-14T06:22:19.739Z,102023.53
2023-05-14T06:24:46.550Z,102030.47
2023-05-14T06:27:13.151Z,102020.22
2023-05-14T06:29:39.715Z,102029.91
2023-05-14T06:32:06.742Z,102031.53
2023-05-14T06:34:33.446Z,102030.53
2023-05-14T06:37:00.389Z,102039.06
2023-05-14T06:39:26.895Z,102030.66
2023-05-14T06:41:53.406Z,102033.25
2023-05-14T06:44:19.969Z,102034.56
2023-05-14T06:46:46.485Z,102030.75
2023-05-14T06:49:13.051Z,102025.28
2023-05-14T06:51:40.760Z,102028.16
2023-05-14T06:54:07.381Z,102030.41
2023-05-14T06:56:35.079Z,102031.28
2023-05-14T06:59:01.673Z,102023.13
2023-05-14T07:01:28.344Z,102026.28
2023-05-14T07:03:55.025Z,102029.84
2023-05-14T07:06:21.784Z,102017.44
2023-05-14T07:08:48.517Z,102016.16
2023-05-14T07:11:15.467Z,102010.41
2023-05-14T07:13:42.528Z,102010.78
2023-05-14T07:16:11.853Z,102004.31
2023-05-14T07:18:38.401Z,102011.31
2023-05-14T07:21:06.547Z,102002.09
2023-05-14T07:23:33.768Z,102008.13
2023-05-14T07:26:00.291Z,102004.13
2023-05-14T07:28:26.785Z,102002.66
2023-05-14T07:30:53.362Z,102002.78
2023-05-14T07:33:19.920Z,102001.31
2023-05-14T07:35:46.525Z,101998.53
2023-05-14T07:38:13.262Z,101998.84
2023-05-14T07:40:39.902Z,101999.69
2023-05-14T07:43:06.412Z,102006.41
2023-05-14T07:45:32.984Z,101996.41
2023-05-14T07:47:59.623Z,102003.25
2023-05-14T07:50:26.768Z,102008.97
2023-05-14T07:52:53.391Z,101998.72
2023-05-14T07:55:19.918Z,101995.25
2023-05-14T07:57:46.431Z,101986.06
2023-05-14T08:00:13.636Z,101985.03
2023-05-14T08:02:40.414Z,101980.94
2023-05-14T08:05:07.500Z,101975.69
2023-05-14T08:07:34.015Z,101983.00
2023-05-14T08:10:00.597Z,101982.34
2023-05-14T08:12:27.444Z,101983.88
2023-05-14T08:14:53.971Z,101982.91
2023-05-14T08:17:20.497Z,101991.56
2023-05-14T08:19:47.129Z,101990.22
2023-05-14T08:22:13.809Z,101994.00
2023-05-14T08:24:40.523Z,101993.81
2023-05-14T08:27:07.220Z,101995.56
2023-05-14T08:29:33.772Z,101992.19
2023-05-14T08:32:05.779Z,101994.13
2023-05-14T08:34:38.597Z,101987.47
2023-05-14T08:37:05.126Z,101989.34
2023-05-14T08:39:31.645Z,101981.09
2023-05-14T08:41:58.684Z,101976.78
2023-05-14T08:44:33.593Z,101975.16
2023-05-14T08:47:00.204Z,101972.38
2023-05-14T08:49:42.722Z,101966.19
2023-05-14T08:52:10.149Z,101956.00
2023-05-14T08:54:36.880Z,101942.13
2023-05-14T08:57:04.971Z,101952.06
2023-05-14T08:59:31.798Z,101954.66
2023-05-14T09:02:02.140Z,101952.66
2023-05-14T09:04:29.777Z,101950.91
2023-05-14T09:06:56.386Z,101950.63
2023-05-14T09:09:23.368Z,101950.88
2023-05-14T09:11:51.373Z,101954.78
2023-05-14T09:14:18.308Z,101952.09
2023-05-14T09:16:49.607Z,101939.09
2023-05-14T09:19:18.971Z,101935.25
2023-05-14T09:21:47.157Z,101932.06
2023-05-14T09:24:18.776Z,101934.03
2023-05-14T09:26:45.290Z,101931.88
2023-05-14T09:29:11.832Z,101929.25
2023-05-14T09:31:38.323Z,101932.88
2023-05-14T09:34:04.903Z,101933.88
2023-05-14T09:36:34.623Z,101933.16
2023-05-14T09:39:03.912Z,101939.53
2023-05-14T09:41:30.454Z,101930.28
2023-05-14T09:43:58.040Z,101934.25
2023-05-14T09:46:30.029Z,101937.69
2023-05-14T09:48:56.889Z,101930.47
2023-05-14T09:51:24.072Z,101927.72
2023-05-14T09:53:53.046Z,101927.59
2023-05-14T09:56:19.846Z,101931.47
2023-05-14T09:58:46.355Z,101925.88
2023-05-14T10:01:13.371Z,101916.69
2023-05-14T10:03:40.266Z,101923.50
2023-05-14T10:06:07.408Z,101926.94
2023-05-14T10:08:35.919Z,101922.28
2023-05-14T10:11:07.004Z,101918.81
2023-05-14T10:13:39.287Z,101922.56
2023-05-14T10:16:13.270Z,101912.69
2023-05-14T10:18:41.802Z,101915.19
2023-05-14T10:21:08.731Z,101912.38
2023-05-14T10:23:37.857Z,101912.25
2023-05-14T10:26:05.157Z,101912.97
2023-05-14T10:28:32.120Z,101913.31
2023-05-14T10:31:00.686Z,101911.31
2023-05-14T10:33:27.512Z,101907.56
2023-05-14T10:36:07.428Z,101905.09
2023-05-14T10:38:36.438Z,101908.81
2023-05-14T10:41:05.369Z,101908.59
2023-05-14T10:43:37.068Z,101902.28
2023-05-14T10:46:04.167Z,101902.75
2023-05-14T10:48:31.076Z,101896.28
2023-05-14T10:50:58.019Z,101889.97
2023-05-14T10:53:34.659Z,101892.63
2023-05-14T10:56:11.190Z,101894.44
2023-05-14T10:58:42.444Z,101881.50
2023-05-14T11:01:11.374Z,101882.13
2023-05-14T11:03:42.489Z,101880.59
2023-05-14T11:06:11.322Z,101872.09
2023-05-14T11:08:38.858Z,101870.31
2023-05-14T11:11:06.358Z,101870.38
2023-05-14T11:13:34.498Z,101874.03
2023-05-14T11:16:08.774Z,101870.72
2023-05-14T11:18:42.191Z,101861.38
2023-05-14T11:21:08.983Z,101867.91
2023-05-14T11:23:35.554Z,101860.25
2023-05-14T11:26:02.146Z,101865.53
2023-05-14T11:28:29.785Z,101859.69
2023-05-14T11:30:56.324Z,101845.28
2023-05-14T11:33:22.842Z,101849.00
2023-05-14T11:35:49.351Z,101840.31
2023-05-14T11:38:16.557Z,101838.25
2023-05-14T11:40:47.922Z,101835.06
2023-05-14T11:43:14.525Z,101838.09
2023-05-14T11:45:41.797Z,101832.75
2023-05-14T11:48:18.029Z,101826.41
2023-05-14T11:50:52.109Z,101832.63
2023-05-14T11:53:29.283Z,101829.19
2023-05-14T11:55:57.754Z,101833.25
2023-05-14T11:58:24.820Z,101836.31
2023-05-14T12:00:52.064Z,101830.16
2023-05-14T12:03:25.727Z,101825.25
2023-05-14T12:05:56.536Z,101829.06
2023-05-14T12:08:27.109Z,101826.13
2023-05-14T12:10:54.193Z,101829.09
2023-05-14T12:13:21.019Z,101824.41
2023-05-14T12:15:54.312Z,101823.72
2023-05-14T12:18:24.938Z,101814.16
2023-05-14T12:20:52.210Z,101818.41
2023-05-14T12:23:29.757Z,101814.31
2023-05-14T12:26:02.360Z,101822.25
2023-05-14T12:28:28.879Z,101817.31
2023-05-14T12:30:59.765Z,101818.69
2023-05-14T12:33:26.962Z,101806.28
2023-05-14T12:35:54.164Z,101809.38
2023-05-14T12:38:20.988Z,101806.03
2023-05-14T12:40:47.619Z,101807.25
2023-05-14T12:43:14.438Z,101806.66
2023-05-14T12:45:41.034Z,101804.22
2023-05-14T12:48:07.725Z,101797.31
2023-05-14T12:50:34.335Z,101803.81
2023-05-14T12:53:01.060Z,101800.97
2023-05-14T12:55:27.673Z,101798.97
2023-05-14T12:57:54.443Z,101805.94
2023-05-14T13:00:21.083Z,101801.88
2023-05-14T13:02:47.662Z,101810.13
2023-05-14T13:05:14.268Z,101801.06
2023-05-14T13:07:41.194Z,101809.25
2023-05-14T13:10:08.494Z,101805.97
2023-05-14T13:12:35.060Z,101801.44
2023-05-14T13:15:01.602Z,101795.31
2023-05-14T13:17:28.203Z,101807.19
2023-05-14T13:19:54.792Z,101807.81
2023-05-14T13:22:21.335Z,101813.78
2023-05-14T13:24:47.853Z,101805.88
2023-05-14T13:27:14.362Z,101800.66
2023-05-14T13:29:40.872Z,101813.78
2023-05-14T13:32:07.514Z,101810.97
2023-05-14T13:34:34.267Z,101817.28
2023-05-14T13:37:01.097Z,101812.78
2023-05-14T13:39:27.653Z,101816.34
2023-05-14T13:41:56.746Z,101804.41
2023-05-14T13:44:23.553Z,101816.28
2023-05-14T13:46:50.196Z,101815.66
2023-05-14T13:49:16.816Z,101821.19
2023-05-14T13:51:43.328Z,101816.72
2023-05-14T13:54:10.300Z,101823.03
2023-05-14T13:56:36.828Z,101818.16
2023-05-14T13:59:03.549Z,101820.72
2023-05-14T14:01:32.928Z,101819.38
2023-05-14T14:03:59.533Z,101815.53
2023-05-14T14:06:27.439Z,101812.97
2023-05-14T14:08:54.038Z,101814.22
2023-05-14T14:11:20.756Z,101810.28
2023-05-14T14:13:47.381Z,101809.81
2023-05-14T14:16:13.937Z,101802.72
2023-05-14T14:18:40.566Z,101807.72
2023-05-14T14:21:07.133Z,101804.31
2023-05-14T14:23:33.679Z,101806.34
2023-05-14T14:26:00.711Z,101807.47
2023-05-14T14:28:27.281Z,101800.38
2023-05-14T14:30:53.932Z,101799.16
2023-05-14T14:33:20.506Z,101799.50
2023-05-14T14:35:47.121Z,101807.38
2023-05-14T14:38:14.143Z,101799.75
2023-05-14T14:40:40.758Z,101806.75
2023-05-14T14:43:07.420Z,101809.47
2023-05-14T14:45:34.074Z,101809.31
2023-05-14T14:48:23.697Z,101802.69
2023-05-14T14:50:50.420Z,101799.53
2023-05-14T14:53:16.999Z,101795.44
2023-05-14T14:55:43.557Z,101796.16
2023-05-14T14:58:10.067Z,101789.34
2023-05-14T15:00:36.586Z,101787.53
2023-05-14T15:03:03.181Z,101798.34
2023-05-14T15:05:29.741Z,101791.25
2023-05-14T15:07:56.281Z,101787.31
2023-05-14T15:10:22.828Z,101787.94
2023-05-14T15:12:49.381Z,101788.22
2023-05-14T15:15:16.060Z,101786.84
2023-05-14T15:17:42.606Z,101778.66
2023-05-14T15:20:10.047Z,101780.28
2023-05-14T15:22:36.570Z,101775.66
2023-05-14T15:25:04.028Z,101779.59
2023-05-14T15:27:30.546Z,101778.78
2023-05-14T15:29:57.037Z,101776.25
2023-05-14T15:32:25.861Z,101764.91
2023-05-14T15:34:52.506Z,101776.44
2023-05-14T15:37:19.035Z,101778.50
2023-05-14T15:39:45.582Z,101775.63
2023-05-14T15:42:12.291Z,101770.66
2023-05-14T15:44:39.122Z,101772.91
2023-05-14T15:47:06.087Z,101772.88
2023-05-14T15:49:32.635Z,101767.31
2023-05-14T15:52:00.652Z,101766.38
2023-05-14T15:54:27.213Z,101768.44
2023-05-14T15:56:53.783Z,101765.97
2023-05-14T15:59:20.342Z,101766.19
2023-05-14T16:01:46.937Z,101757.56
2023-05-14T16:04:13.504Z,101766.41
2023-05-14T16:06:41.962Z,101774.63
2023-05-14T16:09:08.587Z,101768.81
2023-05-14T16:11:35.121Z,101778.91
2023-05-14T16:14:01.751Z,101779.84
2023-05-14T16:16:28.300Z,101784.53
2023-05-14T16:18:54.874Z,101775.38
2023-05-14T16:21:21.472Z,101773.03
2023-05-14T16:23:48.118Z,101770.53
2023-05-14T16:26:14.657Z,101768.34
2023-05-14T16:28:42.724Z,101765.94
2023-05-14T16:31:09.178Z,101758.28
2023-05-14T16:33:35.805Z,101759.50
2023-05-14T16:36:02.408Z,101765.00
2023-05-14T16:38:28.889Z,101761.72
2023-05-14T16:40:55.488Z,101763.16
2023-05-14T16:43:22.176Z,101765.91
2023-05-14T16:45:48.766Z,101764.81
2023-05-14T16:48:16.407Z,101767.22
2023-05-14T16:50:42.905Z,101769.94
2023-05-14T16:53:09.407Z,101759.09
2023-05-14T16:55:35.914Z,101774.28
2023-05-14T16:58:02.546Z,101770.00
2023-05-14T17:00:29.141Z,101768.34
2023-05-14T17:02:55.822Z,101768.47
2023-05-14T17:05:22.475Z,101762.47
2023-05-14T17:07:49.143Z,101759.66
2023-05-14T17:10:15.753Z,101760.81
2023-05-14T17:12:42.349Z,101765.84
2023-05-14T17:15:09.675Z,101762.03
2023-05-14T17:17:36.346Z,101765.72
2023-05-14T17:20:05.936Z,101761.56
2023-05-14T17:22:32.503Z,101771.38
2023-05-14T17:24:59.438Z,101766.00
2023-05-14T17:27:26.360Z,101763.72
2023-05-14T17:29:52.944Z,101761.88
2023-05-14T17:32:19.561Z,101764.66
2023-05-14T17:34:46.276Z,101757.34
2023-05-14T17:37:13.023Z,101752.88
2023-05-14T17:39:39.590Z,101763.59
2023-05-14T17:42:06.695Z,101756.44
2023-05-14T17:44:33.217Z,101755.22
2023-05-14T17:47:00.575Z,101748.78
2023-05-14T17:49:27.228Z,101747.69
2023-05-14T17:51:53.799Z,101744.97
2023-05-14T17:54:20.430Z,101754.44
2023-05-14T17:56:48.156Z,101747.38
2023-05-14T17:59:14.754Z,101744.88
2023-05-14T18:01:41.290Z,101753.94
2023-05-14T18:04:08.026Z,101754.97
2023-05-14T18:06:34.631Z,101751.63
2023-05-14T18:09:01.158Z,101759.78
2023-05-14T18:11:33.611Z,101758.72
2023-05-14T18:14:00.841Z,101759.16
2023-05-14T18:16:27.857Z,101761.63
2023-05-14T18:18:56.298Z,101770.66
2023-05-14T18:21:23.053Z,101770.03
2023-05-14T18:23:49.641Z,101770.66
2023-05-14T18:26:16.202Z,101768.53
2023-05-14T18:28:42.810Z,101763.34
2023-05-14T18:31:09.395Z,101766.94
2023-05-14T18:33:35.983Z,101766.47
2023-05-14T18:36:02.586Z,101761.16
2023-05-14T18:38:29.093Z,101762.91
2023-05-14T18:40:55.691Z,101761.75
2023-05-14T18:43:22.232Z,101768.22
2023-05-14T18:45:51.636Z,101767.31
2023-05-14T18:48:18.148Z,101776.00
2023-05-14T18:50:44.831Z,101770.16
2023-05-14T18:53:11.377Z,101775.81
2023-05-14T18:55:38.163Z,101767.09
2023-05-14T18:58:04.738Z,101776.25
2023-05-14T19:00:31.454Z,101772.47
2023-05-14T19:02:58.028Z,101780.72
2023-05-14T19:05:24.784Z,101775.53
2023-05-14T19:07:51.609Z,101778.94
2023-05-14T19:10:18.271Z,101778.31
2023-05-14T19:12:46.559Z,101775.53
2023-05-14T19:15:13.082Z,101773.72
2023-05-14T19:17:39.810Z,101775.88
2023-05-14T19:20:07.952Z,101780.81
2023-05-14T19:22:34.543Z,101772.06
2023-05-14T19:25:01.391Z,101781.13
2023-05-14T19:27:27.952Z,101780.69
2023-05-14T19:29:54.465Z,101776.25
2023-05-14T19:32:21.020Z,101775.81
2023-05-14T19:34:48.471Z,101769.63
2023-05-14T19:37:16.146Z,101762.56
2023-05-14T19:39:42.660Z,101759.84
2023-05-14T19:42:09.207Z,101765.09
2023-05-14T19:44:35.887Z,101761.56
2023-05-14T19:47:02.497Z,101756.31
2023-05-14T19:49:29.082Z,101756.63
2023-05-14T19:51:55.689Z,101762.66
2023-05-14T19:54:22.222Z,101767.75
2023-05-14T19:56:48.794Z,101763.41
2023-05-14T19:59:15.562Z,101756.75
2023-05-14T20:01:42.214Z,101766.72
2023-05-14T20:04:09.040Z,101760.50
2023-05-14T20:06:35.556Z,101764.06
2023-05-14T20:09:02.137Z,101764.13
2023-05-14T20:11:28.661Z,101764.38
2023-05-14T20:13:55.187Z,101771.50
2023-05-14T20:16:21.722Z,101769.03
2023-05-14T20:18:48.385Z,101768.19
2023-05-14T20:21:14.974Z,101767.34
2023-05-14T20:23:41.501Z,101777.16
2023-05-14T20:26:08.010Z,101771.03
2023-05-14T20:28:34.521Z,101769.22
2023-05-14T20:31:03.015Z,101772.06
2023-05-14T20:33:30.546Z,101773.16
2023-05-14T20:35:57.104Z,101769.66
2023-05-14T20:38:25.631Z,101771.53
2023-05-14T20:40:52.203Z,101770.97
2023-05-14T20:43:18.784Z,101772.06
2023-05-14T20:45:45.596Z,101772.31
2023-05-14T20:48:16.119Z,101772.44
2023-05-14T20:50:43.203Z,101770.59
2023-05-14T20:53:09.799Z,101765.69
2023-05-14T20:55:36.290Z,101760.38
2023-05-14T20:58:02.838Z,101760.63
2023-05-14T21:00:29.475Z,101759.06
2023-05-14T21:02:56.636Z,101745.88
2023-05-14T21:05:23.669Z,101744.25
2023-05-14T21:07:50.547Z,101744.94
2023-05-14T21:10:17.608Z,101746.66
2023-05-14T21:12:44.883Z,101742.38
2023-05-14T21:15:11.975Z,101746.97
2023-05-14T21:17:38.532Z,101740.66
2023-05-14T21:20:05.632Z,101732.81
2023-05-14T21:22:32.451Z,101735.47
2023-05-14T21:24:59.005Z,101727.47
2023-05-14T21:27:26.608Z,101732.81
2023-05-14T21:29:53.134Z,101737.25
2023-05-14T21:32:20.249Z,101731.09
2023-05-14T21:34:46.836Z,101738.16
2023-05-14T21:37:13.637Z,101747.13
2023-05-14T21:39:40.190Z,101749.94
2023-05-14T21:42:07.134Z,101763.19
2023-05-14T21:44:33.675Z,101770.47
2023-05-14T21:47:00.268Z,101762.03
2023-05-14T21:49:26.784Z,101762.19
2023-05-14T21:51:54.547Z,101768.72
2023-05-14T21:54:21.139Z,101754.75
2023-05-14T21:56:47.772Z,101751.25
2023-05-14T21:59:14.239Z,101751.38
2023-05-14T22:02:04.963Z,101744.34
2023-05-14T22:04:27.292Z,101736.28
2023-05-14T22:06:53.843Z,101736.19
2023-05-14T22:09:20.822Z,101728.19
2023-05-14T22:11:47.317Z,101733.50
2023-05-14T22:14:13.946Z,101738.84
2023-05-14T22:16:40.574Z,101732.06
2023-05-14T22:19:07.352Z,101730.34
2023-05-14T22:21:33.890Z,101732.91
2023-05-14T22:24:00.556Z,101728.47
2023-05-14T22:26:27.148Z,101725.03
2023-05-14T22:28:53.761Z,101717.31
2023-05-14T22:31:20.356Z,101710.19
2023-05-14T22:33:46.926Z,101710.22
2023-05-14T22:36:13.489Z,101706.78
2023-05-14T22:38:41.242Z,101714.66
2023-05-14T22:41:07.774Z,101719.00
2023-05-14T22:43:34.333Z,101716.31
2023-05-14T22:46:00.890Z,101711.88
2023-05-14T22:48:27.507Z,101702.19
2023-05-14T22:50:54.049Z,101700.38
2023-05-14T22:53:20.641Z,101704.78
2023-05-14T22:55:47.246Z,101705.78
2023-05-14T22:58:13.748Z,101700.53
2023-05-14T23:00:40.326Z,101701.50
2023-05-14T23:03:06.941Z,101696.31
2023-05-14T23:05:33.587Z,101691.88
2023-05-14T23:08:00.156Z,101691.09
2023-05-14T23:10:26.894Z,101683.16
2023-05-14T23:12:53.387Z,101689.41
2023-05-14T23:15:20.047Z,101692.84
2023-05-14T23:17:46.686Z,101690.31
2023-05-14T23:20:13.224Z,101686.88
2023-05-14T23:22:40.324Z,101692.22
2023-05-14T23:25:07.814Z,101689.84
2023-05-14T23:27:34.963Z,101693.44
2023-05-14T23:30:01.553Z,101684.69
2023-05-14T23:32:28.108Z,101681.44
2023-05-14T23:34:54.817Z,101687.66
2023-05-14T23:37:21.460Z,101689.53
2023-05-14T23:39:48.000Z,101685.22
2023-05-14T23:42:14.620Z,101687.03
2023-05-14T23:44:41.182Z,101689.03
2023-05-14T23:47:08.754Z,101682.09
2023-05-14T23:49:35.497Z,101680.31
2023-05-14T23:52:02.363Z,101679.47
2023-05-14T23:54:28.940Z,101674.22
2023-05-14T23:56:55.478Z,101658.38
2023-05-14T23:59:22.476Z,101652.16
